Therese Danos — WDH3296 — position and weather

sailwx.info

Track history (hours):
 
Tides and Currents Weather Stations Pressure Air Temp Water Temp Dewpoint Dewpoint Depression Visibility Wind Speed Wind Dir Waves Ship Positions

Therese Danos

Owner: Henry T. Marine, Inc., Larose, LA. More information available from US FCC via Universal Licensing System and Coast Guard Vessel Documentation Center.

Last reported at 2017-Oct-19 13:38 UTC. Time now 2017-Oct-20 16:22 UTC.
Position N 29°49' W 093°20'.

Length 40 m; draft 3 m.

Type: Cargo ship. MMSI: 367606280.

Date/timePositionNaut miles runAvg speedWind from/ knotsBaromVisibWave heightAir tempDewpointWater temp
2017-Oct-19 13:38N 29°49' W 093°20'0 0.0
2017-Oct-19 00:27N 29°49' W 093°20'0 0.0
2017-Oct-17 12:39N 29°49' W 093°20'0 0.0
2017-Oct-17 12:14N 29°49' W 093°20'0 0.0
2017-Oct-17 11:56N 29°49' W 093°20'0 0.0
2017-Oct-17 04:11N 29°49' W 093°20'1 0.5
2017-Oct-17 03:15N 29°49' W 093°21'0 0.0
2017-Oct-16 15:54N 29°49' W 093°20'0 0.2
2017-Oct-16 15:30N 29°49' W 093°20'0 0.0
2017-Oct-16 14:58N 29°49' W 093°20'0 0.0
2017-Oct-16 13:58N 29°49' W 093°20'1 2.1
2017-Oct-16 13:30N 29°48' W 093°21'0 0.0
2017-Oct-16 12:58N 29°48' W 093°21'0 0.0
2017-Oct-16 12:30N 29°48' W 093°21'0 0.0
2017-Oct-16 12:00N 29°48' W 093°21'0 0.0
2017-Oct-16 11:29N 29°48' W 093°21'0 0.0
2017-Oct-16 10:54N 29°48' W 093°21'0 0.0
2017-Oct-16 10:30N 29°48' W 093°21'0 0.0
2017-Oct-16 09:51N 29°48' W 093°21'0 0.0
2017-Oct-16 09:30N 29°48' W 093°21'0 0.0
2017-Oct-16 08:11N 29°48' W 093°21'0 0.0
2017-Oct-16 07:15N 29°48' W 093°21'0 0.0
2017-Oct-16 06:53N 29°48' W 093°21'0 0.0
2017-Oct-16 06:30N 29°48' W 093°21'0 0.0
2017-Oct-16 05:56N 29°48' W 093°21'0 0.0
2017-Oct-16 05:27N 29°48' W 093°21'0 0.0
2017-Oct-16 04:59N 29°48' W 093°21'2 3.7
2017-Oct-16 04:26N 29°46' W 093°21'0 0.0
2017-Oct-16 03:53N 29°46' W 093°21'0 0.0
2017-Oct-16 03:23N 29°46' W 093°21'0 0.0
2017-Oct-16 03:00N 29°46' W 093°21'0 0.0
2017-Oct-16 02:28N 29°46' W 093°21'0 0.0
2017-Oct-16 01:56N 29°46' W 093°21'0 0.0
2017-Oct-16 01:30N 29°46' W 093°21'0 0.0
2017-Oct-16 01:00N 29°46' W 093°21'1 1.2
2017-Oct-16 00:30N 29°46' W 093°21'  
2017-Oct-13 18:59N 29°46' W 093°21'3 3.6
2017-Oct-13 18:10N 29°49' W 093°21'0 1.4
2017-Oct-13 18:00N 29°49' W 093°20'0 0.0
2017-Oct-13 17:30N 29°49' W 093°20'0 0.0
2017-Oct-13 16:58N 29°49' W 093°20'0 0.0
2017-Oct-13 16:30N 29°49' W 093°20'0 0.1
2017-Oct-13 15:35N 29°49' W 093°20'0 0.0
2017-Oct-13 15:26N 29°49' W 093°20'0 0.0
2017-Oct-13 14:44N 29°49' W 093°20'0 0.0
2017-Oct-13 14:30N 29°49' W 093°20'0 0.0
2017-Oct-13 13:58N 29°49' W 093°20'0 0.0
2017-Oct-13 13:30N 29°49' W 093°20'0 0.0
2017-Oct-13 13:00N 29°49' W 093°20'0 0.0
2017-Oct-13 12:30N 29°49' W 093°20'0 0.0
2017-Oct-13 12:00N 29°49' W 093°20'0 0.0
2017-Oct-13 11:29N 29°49' W 093°20'0 0.0
2017-Oct-13 10:58N 29°49' W 093°20'0 0.0
2017-Oct-13 10:27N 29°49' W 093°20'0 0.0
2017-Oct-13 09:59N 29°49' W 093°20'0 0.0
2017-Oct-13 09:28N 29°49' W 093°20'0 0.0
2017-Oct-13 09:00N 29°49' W 093°20'0 0.0
2017-Oct-13 08:30N 29°49' W 093°20'0 0.0
2017-Oct-13 08:00N 29°49' W 093°20'0 0.0
2017-Oct-13 07:30N 29°49' W 093°20'0 0.0
2017-Oct-13 07:00N 29°49' W 093°20'0 0.0
2017-Oct-13 06:30N 29°49' W 093°20'0 0.0
2017-Oct-13 06:00N 29°49' W 093°20'0 0.0
2017-Oct-13 05:30N 29°49' W 093°20'0 0.0
2017-Oct-13 05:00N 29°49' W 093°20'0 0.0
2017-Oct-13 04:30N 29°49' W 093°20'0 0.0
2017-Oct-13 04:00N 29°49' W 093°20'0 0.0
2017-Oct-13 03:30N 29°49' W 093°20'0 0.0
2017-Oct-13 03:00N 29°49' W 093°20'0 0.0
2017-Oct-13 02:30N 29°49' W 093°20'0 0.0
2017-Oct-13 02:00N 29°49' W 093°20'0 0.0
2017-Oct-13 01:30N 29°49' W 093°20'0 0.0
2017-Oct-13 00:56N 29°49' W 093°20'0 0.0
2017-Oct-13 00:30N 29°49' W 093°20'0 0.0
2017-Oct-13 00:00N 29°49' W 093°20'0 0.0
2017-Oct-12 23:30N 29°49' W 093°20'0 0.0
2017-Oct-12 23:00N 29°49' W 093°20'0 0.0
2017-Oct-12 22:30N 29°49' W 093°20'0 0.0
2017-Oct-12 22:00N 29°49' W 093°20'0 0.0
2017-Oct-12 21:30N 29°49' W 093°20'0 0.0
2017-Oct-12 20:51N 29°49' W 093°20'0 0.0
2017-Oct-12 20:29N 29°49' W 093°20'0 0.0
2017-Oct-12 19:59N 29°49' W 093°20'0 0.0
2017-Oct-12 18:59N 29°49' W 093°20'0 0.0
2017-Oct-12 18:30N 29°49' W 093°20'0 0.0
2017-Oct-12 18:00N 29°49' W 093°20'0 0.0
2017-Oct-12 17:30N 29°49' W 093°20'0 0.0
2017-Oct-12 17:00N 29°49' W 093°20'0 0.0
2017-Oct-12 16:30N 29°49' W 093°20'0 0.0
2017-Oct-12 16:00N 29°49' W 093°20'0 0.0
2017-Oct-12 15:30N 29°49' W 093°20'0 0.0
2017-Oct-12 14:58N 29°49' W 093°20'0 0.0
2017-Oct-12 14:30N 29°49' W 093°20'0 0.0
2017-Oct-12 13:54N 29°49' W 093°20'0 0.0
2017-Oct-12 13:28N 29°49' W 093°20'0 0.0
2017-Oct-12 13:00N 29°49' W 093°20'0 0.0
2017-Oct-12 12:26N 29°49' W 093°20'0 0.0
2017-Oct-12 11:27N 29°49' W 093°20'0 0.0
2017-Oct-12 10:57N 29°49' W 093°20'0 0.0
2017-Oct-12 10:30N 29°49' W 093°20'0 0.0
2017-Oct-12 09:59N 29°49' W 093°20'0 0.0
2017-Oct-12 09:30N 29°49' W 093°20'0 0.0
2017-Oct-12 09:00N 29°49' W 093°20'0 0.0
2017-Oct-12 08:30N 29°49' W 093°20'0 0.0
2017-Oct-12 08:00N 29°49' W 093°20'0 0.0
2017-Oct-12 07:30N 29°49' W 093°20'0 0.0
2017-Oct-12 07:00N 29°49' W 093°20'0 0.0
2017-Oct-12 06:30N 29°49' W 093°20'0 0.0
2017-Oct-12 06:00N 29°49' W 093°20'0 0.0
2017-Oct-12 05:24N 29°49' W 093°20'0 0.0
2017-Oct-12 04:53N 29°49' W 093°20'0 0.0
2017-Oct-12 04:28N 29°49' W 093°20'0 0.0
2017-Oct-12 03:59N 29°49' W 093°20'0 0.0
2017-Oct-12 03:30N 29°49' W 093°20'0 0.0
2017-Oct-12 03:00N 29°49' W 093°20'0 0.0
2017-Oct-12 02:31N 29°49' W 093°20'0 0.0
2017-Oct-11 22:15N 29°49' W 093°20'1 2.9
2017-Oct-11 21:57N 29°49' W 093°21'2 0.1
2017-Oct-10 23:00N 29°46' W 093°21'0 0.0
2017-Oct-10 22:17N 29°46' W 093°21'3 0.1
2017-Oct-09 15:27N 29°49' W 093°20'0 0.1
2017-Oct-09 14:58N 29°49' W 093°20'0 0.0
2017-Oct-09 14:30N 29°49' W 093°20'0 0.0
2017-Oct-09 13:55N 29°49' W 093°20'  
Track history (hours):
 
Tides and Currents Weather Stations Pressure Air Temp Water Temp Dewpoint Dewpoint Depression Visibility Wind Speed Wind Dir Waves Ship Positions

Therese Danos

Owner: Henry T. Marine, Inc., Larose, LA. More information available from US FCC via Universal Licensing System and Coast Guard Vessel Documentation Center.

Last reported at 2017-Oct-19 13:38 UTC. Time now 2017-Oct-20 16:22 UTC.
Position N 29°49' W 093°20'.

Length 40 m; draft 3 m.

Type: Cargo ship. MMSI: 367606280.

Date/timePositionNaut miles runAvg speedWind from/ knotsBaromVisibWave heightAir tempDewpointWater temp
2017-Oct-19 13:38N 29°49' W 093°20'0 0.0
2017-Oct-19 00:27N 29°49' W 093°20'0 0.0
2017-Oct-17 12:39N 29°49' W 093°20'0 0.0
2017-Oct-17 12:14N 29°49' W 093°20'0 0.0
2017-Oct-17 11:56N 29°49' W 093°20'0 0.0
2017-Oct-17 04:11N 29°49' W 093°20'1 0.5
2017-Oct-17 03:15N 29°49' W 093°21'0 0.0
2017-Oct-16 15:54N 29°49' W 093°20'0 0.2
2017-Oct-16 15:30N 29°49' W 093°20'0 0.0
2017-Oct-16 14:58N 29°49' W 093°20'0 0.0
2017-Oct-16 13:58N 29°49' W 093°20'1 2.1
2017-Oct-16 13:30N 29°48' W 093°21'0 0.0
2017-Oct-16 12:58N 29°48' W 093°21'0 0.0
2017-Oct-16 12:30N 29°48' W 093°21'0 0.0
2017-Oct-16 12:00N 29°48' W 093°21'0 0.0
2017-Oct-16 11:29N 29°48' W 093°21'0 0.0
2017-Oct-16 10:54N 29°48' W 093°21'0 0.0
2017-Oct-16 10:30N 29°48' W 093°21'0 0.0
2017-Oct-16 09:51N 29°48' W 093°21'0 0.0
2017-Oct-16 09:30N 29°48' W 093°21'0 0.0
2017-Oct-16 08:11N 29°48' W 093°21'0 0.0
2017-Oct-16 07:15N 29°48' W 093°21'0 0.0
2017-Oct-16 06:53N 29°48' W 093°21'0 0.0
2017-Oct-16 06:30N 29°48' W 093°21'0 0.0
2017-Oct-16 05:56N 29°48' W 093°21'0 0.0
2017-Oct-16 05:27N 29°48' W 093°21'0 0.0
2017-Oct-16 04:59N 29°48' W 093°21'2 3.7
2017-Oct-16 04:26N 29°46' W 093°21'0 0.0
2017-Oct-16 03:53N 29°46' W 093°21'0 0.0
2017-Oct-16 03:23N 29°46' W 093°21'0 0.0
2017-Oct-16 03:00N 29°46' W 093°21'0 0.0
2017-Oct-16 02:28N 29°46' W 093°21'0 0.0
2017-Oct-16 01:56N 29°46' W 093°21'0 0.0
2017-Oct-16 01:30N 29°46' W 093°21'0 0.0
2017-Oct-16 01:00N 29°46' W 093°21'1 1.2
2017-Oct-16 00:30N 29°46' W 093°21'  
2017-Oct-13 18:59N 29°46' W 093°21'3 3.6
2017-Oct-13 18:10N 29°49' W 093°21'0 1.4
2017-Oct-13 18:00N 29°49' W 093°20'0 0.0
2017-Oct-13 17:30N 29°49' W 093°20'0 0.0
2017-Oct-13 16:58N 29°49' W 093°20'0 0.0
2017-Oct-13 16:30N 29°49' W 093°20'0 0.1
2017-Oct-13 15:35N 29°49' W 093°20'0 0.0
2017-Oct-13 15:26N 29°49' W 093°20'0 0.0
2017-Oct-13 14:44N 29°49' W 093°20'0 0.0
2017-Oct-13 14:30N 29°49' W 093°20'0 0.0
2017-Oct-13 13:58N 29°49' W 093°20'0 0.0
2017-Oct-13 13:30N 29°49' W 093°20'0 0.0
2017-Oct-13 13:00N 29°49' W 093°20'0 0.0
2017-Oct-13 12:30N 29°49' W 093°20'0 0.0
2017-Oct-13 12:00N 29°49' W 093°20'0 0.0
2017-Oct-13 11:29N 29°49' W 093°20'0 0.0
2017-Oct-13 10:58N 29°49' W 093°20'0 0.0
2017-Oct-13 10:27N 29°49' W 093°20'0 0.0
2017-Oct-13 09:59N 29°49' W 093°20'0 0.0
2017-Oct-13 09:28N 29°49' W 093°20'0 0.0
2017-Oct-13 09:00N 29°49' W 093°20'0 0.0
2017-Oct-13 08:30N 29°49' W 093°20'0 0.0
2017-Oct-13 08:00N 29°49' W 093°20'0 0.0
2017-Oct-13 07:30N 29°49' W 093°20'0 0.0
2017-Oct-13 07:00N 29°49' W 093°20'0 0.0
2017-Oct-13 06:30N 29°49' W 093°20'0 0.0
2017-Oct-13 06:00N 29°49' W 093°20'0 0.0
2017-Oct-13 05:30N 29°49' W 093°20'0 0.0
2017-Oct-13 05:00N 29°49' W 093°20'0 0.0
2017-Oct-13 04:30N 29°49' W 093°20'0 0.0
2017-Oct-13 04:00N 29°49' W 093°20'0 0.0
2017-Oct-13 03:30N 29°49' W 093°20'0 0.0
2017-Oct-13 03:00N 29°49' W 093°20'0 0.0
2017-Oct-13 02:30N 29°49' W 093°20'0 0.0
2017-Oct-13 02:00N 29°49' W 093°20'0 0.0
2017-Oct-13 01:30N 29°49' W 093°20'0 0.0
2017-Oct-13 00:56N 29°49' W 093°20'0 0.0
2017-Oct-13 00:30N 29°49' W 093°20'0 0.0
2017-Oct-13 00:00N 29°49' W 093°20'0 0.0
2017-Oct-12 23:30N 29°49' W 093°20'0 0.0
2017-Oct-12 23:00N 29°49' W 093°20'0 0.0
2017-Oct-12 22:30N 29°49' W 093°20'0 0.0
2017-Oct-12 22:00N 29°49' W 093°20'0 0.0
2017-Oct-12 21:30N 29°49' W 093°20'0 0.0
2017-Oct-12 20:51N 29°49' W 093°20'0 0.0
2017-Oct-12 20:29N 29°49' W 093°20'0 0.0
2017-Oct-12 19:59N 29°49' W 093°20'0 0.0
2017-Oct-12 18:59N 29°49' W 093°20'0 0.0
2017-Oct-12 18:30N 29°49' W 093°20'0 0.0
2017-Oct-12 18:00N 29°49' W 093°20'0 0.0
2017-Oct-12 17:30N 29°49' W 093°20'0 0.0
2017-Oct-12 17:00N 29°49' W 093°20'0 0.0
2017-Oct-12 16:30N 29°49' W 093°20'0 0.0
2017-Oct-12 16:00N 29°49' W 093°20'0 0.0
2017-Oct-12 15:30N 29°49' W 093°20'0 0.0
2017-Oct-12 14:58N 29°49' W 093°20'0 0.0
2017-Oct-12 14:30N 29°49' W 093°20'0 0.0
2017-Oct-12 13:54N 29°49' W 093°20'0 0.0
2017-Oct-12 13:28N 29°49' W 093°20'0 0.0
2017-Oct-12 13:00N 29°49' W 093°20'0 0.0
2017-Oct-12 12:26N 29°49' W 093°20'0 0.0
2017-Oct-12 11:27N 29°49' W 093°20'0 0.0
2017-Oct-12 10:57N 29°49' W 093°20'0 0.0
2017-Oct-12 10:30N 29°49' W 093°20'0 0.0
2017-Oct-12 09:59N 29°49' W 093°20'0 0.0
2017-Oct-12 09:30N 29°49' W 093°20'0 0.0
2017-Oct-12 09:00N 29°49' W 093°20'0 0.0
2017-Oct-12 08:30N 29°49' W 093°20'0 0.0
2017-Oct-12 08:00N 29°49' W 093°20'0 0.0
2017-Oct-12 07:30N 29°49' W 093°20'0 0.0
2017-Oct-12 07:00N 29°49' W 093°20'0 0.0
2017-Oct-12 06:30N 29°49' W 093°20'0 0.0
2017-Oct-12 06:00N 29°49' W 093°20'0 0.0
2017-Oct-12 05:24N 29°49' W 093°20'0 0.0
2017-Oct-12 04:53N 29°49' W 093°20'0 0.0
2017-Oct-12 04:28N 29°49' W 093°20'0 0.0
2017-Oct-12 03:59N 29°49' W 093°20'0 0.0
2017-Oct-12 03:30N 29°49' W 093°20'0 0.0
2017-Oct-12 03:00N 29°49' W 093°20'0 0.0
2017-Oct-12 02:31N 29°49' W 093°20'0 0.0
2017-Oct-11 22:15N 29°49' W 093°20'1 2.9
2017-Oct-11 21:57N 29°49' W 093°21'2 0.1
2017-Oct-10 23:00N 29°46' W 093°21'0 0.0
2017-Oct-10 22:17N 29°46' W 093°21'3 0.1
2017-Oct-09 15:27N 29°49' W 093°20'0 0.1
2017-Oct-09 14:58N 29°49' W 093°20'0 0.0
2017-Oct-09 14:30N 29°49' W 093°20'0 0.0
2017-Oct-09 13:55N 29°49' W 093°20'  

Dump ship's entire track history